sensor_id;sensor_type;location;lat;lon;timestamp;P1;durP1;ratioP1;P2;durP2;ratioP2
10248;SDS011;5169;50.560;9.714;2022-12-20T00:01:08;25.83;;;15.93;;
10248;SDS011;5169;50.560;9.714;2022-12-20T00:03:36;27.63;;;17.53;;
10248;SDS011;5169;50.560;9.714;2022-12-20T00:06:02;25.40;;;15.33;;
10248;SDS011;5169;50.560;9.714;2022-12-20T00:08:28;25.17;;;16.10;;
10248;SDS011;5169;50.560;9.714;2022-12-20T00:10:54;24.63;;;15.37;;
10248;SDS011;5169;50.560;9.714;2022-12-20T00:13:20;23.27;;;14.77;;
10248;SDS011;5169;50.560;9.714;2022-12-20T00:15:45;24.07;;;15.03;;
10248;SDS011;5169;50.560;9.714;2022-12-20T00:18:11;25.77;;;15.93;;
10248;SDS011;5169;50.560;9.714;2022-12-20T00:20:44;25.27;;;16.13;;
10248;SDS011;5169;50.560;9.714;2022-12-20T00:23:09;24.87;;;15.33;;
10248;SDS011;5169;50.560;9.714;2022-12-20T00:25:35;23.97;;;15.70;;
10248;SDS011;5169;50.560;9.714;2022-12-20T00:28:03;27.37;;;15.33;;
10248;SDS011;5169;50.560;9.714;2022-12-20T00:30:31;24.33;;;15.80;;
10248;SDS011;5169;50.560;9.714;2022-12-20T00:32:57;25.60;;;15.73;;
10248;SDS011;5169;50.560;9.714;2022-12-20T00:35:23;25.60;;;15.37;;
10248;SDS011;5169;50.560;9.714;2022-12-20T00:37:49;22.43;;;14.57;;
10248;SDS011;5169;50.560;9.714;2022-12-20T00:40:15;24.83;;;15.23;;
10248;SDS011;5169;50.560;9.714;2022-12-20T00:42:41;27.20;;;15.80;;
10248;SDS011;5169;50.560;9.714;2022-12-20T00:45:07;24.77;;;15.50;;
10248;SDS011;5169;50.560;9.714;2022-12-20T00:47:33;26.77;;;16.47;;
10248;SDS011;5169;50.560;9.714;2022-12-20T00:50:00;22.90;;;14.97;;
10248;SDS011;5169;50.560;9.714;2022-12-20T00:52:30;23.90;;;15.13;;
10248;SDS011;5169;50.560;9.714;2022-12-20T00:55:05;23.50;;;14.60;;
10248;SDS011;5169;50.560;9.714;2022-12-20T00:57:31;24.00;;;15.47;;
10248;SDS011;5169;50.560;9.714;2022-12-20T00:59:57;23.50;;;15.13;;
10248;SDS011;5169;50.560;9.714;2022-12-20T01:02:23;20.97;;;13.53;;
10248;SDS011;5169;50.560;9.714;2022-12-20T01:04:48;21.23;;;15.40;;
10248;SDS011;5169;50.560;9.714;2022-12-20T01:07:25;23.77;;;15.30;;
10248;SDS011;5169;50.560;9.714;2022-12-20T01:09:50;23.07;;;14.67;;
10248;SDS011;5169;50.560;9.714;2022-12-20T01:12:16;24.57;;;14.90;;
10248;SDS011;5169;50.560;9.714;2022-12-20T01:14:42;20.63;;;13.40;;
10248;SDS011;5169;50.560;9.714;2022-12-20T01:17:08;22.57;;;14.40;;
10248;SDS011;5169;50.560;9.714;2022-12-20T01:19:36;21.47;;;14.63;;
10248;SDS011;5169;50.560;9.714;2022-12-20T01:22:04;22.40;;;14.53;;
10248;SDS011;5169;50.560;9.714;2022-12-20T01:24:30;24.23;;;15.00;;
10248;SDS011;5169;50.560;9.714;2022-12-20T01:26:55;40.17;;;21.20;;
10248;SDS011;5169;50.560;9.714;2022-12-20T01:29:24;28.50;;;17.37;;
10248;SDS011;5169;50.560;9.714;2022-12-20T01:31:50;23.67;;;15.30;;
10248;SDS011;5169;50.560;9.714;2022-12-20T01:34:17;25.90;;;15.80;;
10248;SDS011;5169;50.560;9.714;2022-12-20T01:36:43;21.67;;;15.00;;
10248;SDS011;5169;50.560;9.714;2022-12-20T01:39:13;22.57;;;14.73;;
10248;SDS011;5169;50.560;9.714;2022-12-20T01:41:40;22.23;;;14.33;;
10248;SDS011;5169;50.560;9.714;2022-12-20T01:46:42;22.27;;;13.97;;
10248;SDS011;5169;50.560;9.714;2022-12-20T01:51:43;19.53;;;13.03;;
10248;SDS011;5169;50.560;9.714;2022-12-20T01:54:22;19.10;;;13.10;;
10248;SDS011;5169;50.560;9.714;2022-12-20T01:57:03;22.80;;;14.47;;
10248;SDS011;5169;50.560;9.714;2022-12-20T01:59:34;22.13;;;14.17;;
10248;SDS011;5169;50.560;9.714;2022-12-20T02:02:05;22.33;;;14.53;;
10248;SDS011;5169;50.560;9.714;2022-12-20T02:04:35;20.97;;;14.23;;
10248;SDS011;5169;50.560;9.714;2022-12-20T02:07:03;23.47;;;13.97;;
10248;SDS011;5169;50.560;9.714;2022-12-20T02:09:32;22.17;;;13.73;;
10248;SDS011;5169;50.560;9.714;2022-12-20T02:12:14;22.77;;;14.57;;
10248;SDS011;5169;50.560;9.714;2022-12-20T02:15:03;19.70;;;13.10;;
10248;SDS011;5169;50.560;9.714;2022-12-20T02:20:44;22.77;;;13.50;;
10248;SDS011;5169;50.560;9.714;2022-12-20T02:32:03;21.50;;;14.27;;
10248;SDS011;5169;50.560;9.714;2022-12-20T02:34:41;20.97;;;14.10;;
10248;SDS011;5169;50.560;9.714;2022-12-20T02:37:07;20.30;;;13.77;;
10248;SDS011;5169;50.560;9.714;2022-12-20T02:39:34;20.53;;;13.83;;
10248;SDS011;5169;50.560;9.714;2022-12-20T02:42:03;20.87;;;14.20;;
10248;SDS011;5169;50.560;9.714;2022-12-20T02:44:36;22.67;;;14.13;;
10248;SDS011;5169;50.560;9.714;2022-12-20T02:48:08;20.50;;;13.30;;
10248;SDS011;5169;50.560;9.714;2022-12-20T02:50:16;19.17;;;13.43;;
10248;SDS011;5169;50.560;9.714;2022-12-20T02:52:47;22.60;;;13.43;;
10248;SDS011;5169;50.560;9.714;2022-12-20T02:55:14;23.43;;;13.90;;
10248;SDS011;5169;50.560;9.714;2022-12-20T02:57:43;20.90;;;12.63;;
10248;SDS011;5169;50.560;9.714;2022-12-20T03:00:18;19.47;;;13.77;;
10248;SDS011;5169;50.560;9.714;2022-12-20T03:02:47;19.67;;;13.23;;
10248;SDS011;5169;50.560;9.714;2022-12-20T03:05:34;22.63;;;13.67;;
10248;SDS011;5169;50.560;9.714;2022-12-20T03:08:07;19.37;;;13.27;;
10248;SDS011;5169;50.560;9.714;2022-12-20T03:10:33;18.80;;;12.70;;
10248;SDS011;5169;50.560;9.714;2022-12-20T03:13:03;19.93;;;13.57;;
10248;SDS011;5169;50.560;9.714;2022-12-20T03:15:29;19.30;;;12.47;;
10248;SDS011;5169;50.560;9.714;2022-12-20T03:17:54;18.07;;;12.07;;
10248;SDS011;5169;50.560;9.714;2022-12-20T03:20:20;16.23;;;11.43;;
10248;SDS011;5169;50.560;9.714;2022-12-20T03:22:48;16.10;;;10.63;;
10248;SDS011;5169;50.560;9.714;2022-12-20T03:25:13;17.00;;;11.60;;
10248;SDS011;5169;50.560;9.714;2022-12-20T03:27:41;17.47;;;10.80;;
10248;SDS011;5169;50.560;9.714;2022-12-20T03:30:07;16.80;;;10.50;;
10248;SDS011;5169;50.560;9.714;2022-12-20T03:32:33;16.67;;;10.87;;
10248;SDS011;5169;50.560;9.714;2022-12-20T03:34:59;13.33;;;10.10;;
10248;SDS011;5169;50.560;9.714;2022-12-20T03:37:24;17.70;;;11.17;;
10248;SDS011;5169;50.560;9.714;2022-12-20T03:39:50;18.60;;;12.60;;
10248;SDS011;5169;50.560;9.714;2022-12-20T03:42:16;20.03;;;11.00;;
10248;SDS011;5169;50.560;9.714;2022-12-20T03:44:42;17.03;;;11.27;;
10248;SDS011;5169;50.560;9.714;2022-12-20T03:47:07;15.77;;;11.07;;
10248;SDS011;5169;50.560;9.714;2022-12-20T03:49:33;20.37;;;11.83;;
10248;SDS011;5169;50.560;9.714;2022-12-20T03:52:01;15.20;;;10.80;;
10248;SDS011;5169;50.560;9.714;2022-12-20T03:54:27;15.77;;;10.33;;
10248;SDS011;5169;50.560;9.714;2022-12-20T03:56:55;17.00;;;11.30;;
10248;SDS011;5169;50.560;9.714;2022-12-20T03:59:20;18.27;;;10.97;;
10248;SDS011;5169;50.560;9.714;2022-12-20T04:01:46;17.13;;;11.30;;
10248;SDS011;5169;50.560;9.714;2022-12-20T04:04:12;15.87;;;10.70;;
10248;SDS011;5169;50.560;9.714;2022-12-20T04:06:39;16.00;;;11.40;;
10248;SDS011;5169;50.560;9.714;2022-12-20T04:09:06;16.07;;;11.40;;
10248;SDS011;5169;50.560;9.714;2022-12-20T04:11:31;16.90;;;11.70;;
10248;SDS011;5169;50.560;9.714;2022-12-20T04:13:57;20.43;;;12.93;;
10248;SDS011;5169;50.560;9.714;2022-12-20T04:16:24;18.00;;;12.30;;
10248;SDS011;5169;50.560;9.714;2022-12-20T04:18:51;17.33;;;11.77;;
10248;SDS011;5169;50.560;9.714;2022-12-20T04:21:21;18.47;;;12.60;;
10248;SDS011;5169;50.560;9.714;2022-12-20T04:23:50;17.40;;;12.67;;
10248;SDS011;5169;50.560;9.714;2022-12-20T04:26:15;20.47;;;12.70;;
10248;SDS011;5169;50.560;9.714;2022-12-20T04:28:41;18.83;;;12.37;;
10248;SDS011;5169;50.560;9.714;2022-12-20T04:31:07;17.27;;;11.67;;
10248;SDS011;5169;50.560;9.714;2022-12-20T04:33:34;18.73;;;11.53;;
10248;SDS011;5169;50.560;9.714;2022-12-20T04:36:01;17.33;;;11.67;;
10248;SDS011;5169;50.560;9.714;2022-12-20T04:38:27;16.47;;;12.07;;
10248;SDS011;5169;50.560;9.714;2022-12-20T04:40:53;18.90;;;11.80;;
10248;SDS011;5169;50.560;9.714;2022-12-20T04:43:20;17.67;;;11.90;;
10248;SDS011;5169;50.560;9.714;2022-12-20T04:45:47;17.60;;;11.97;;
10248;SDS011;5169;50.560;9.714;2022-12-20T04:48:14;18.60;;;11.93;;
10248;SDS011;5169;50.560;9.714;2022-12-20T04:50:40;16.90;;;11.83;;
10248;SDS011;5169;50.560;9.714;2022-12-20T04:53:11;15.43;;;11.50;;
10248;SDS011;5169;50.560;9.714;2022-12-20T04:55:55;17.40;;;11.93;;
10248;SDS011;5169;50.560;9.714;2022-12-20T04:58:22;18.07;;;12.27;;
10248;SDS011;5169;50.560;9.714;2022-12-20T05:00:50;18.13;;;12.80;;
10248;SDS011;5169;50.560;9.714;2022-12-20T05:03:19;18.57;;;12.47;;
10248;SDS011;5169;50.560;9.714;2022-12-20T05:05:48;18.97;;;12.97;;
10248;SDS011;5169;50.560;9.714;2022-12-20T05:08:14;18.67;;;12.77;;
10248;SDS011;5169;50.560;9.714;2022-12-20T05:10:40;19.80;;;13.40;;
10248;SDS011;5169;50.560;9.714;2022-12-20T05:13:06;21.10;;;13.60;;
10248;SDS011;5169;50.560;9.714;2022-12-20T05:15:32;19.00;;;13.37;;
10248;SDS011;5169;50.560;9.714;2022-12-20T05:17:58;19.93;;;13.23;;
10248;SDS011;5169;50.560;9.714;2022-12-20T05:20:30;19.67;;;12.87;;
10248;SDS011;5169;50.560;9.714;2022-12-20T05:22:58;18.40;;;12.70;;
10248;SDS011;5169;50.560;9.714;2022-12-20T05:25:46;16.70;;;12.33;;
10248;SDS011;5169;50.560;9.714;2022-12-20T05:28:33;19.87;;;12.97;;
10248;SDS011;5169;50.560;9.714;2022-12-20T05:30:59;20.23;;;12.67;;
10248;SDS011;5169;50.560;9.714;2022-12-20T05:33:28;16.83;;;11.97;;
10248;SDS011;5169;50.560;9.714;2022-12-20T05:35:56;18.37;;;12.90;;
10248;SDS011;5169;50.560;9.714;2022-12-20T05:38:24;17.07;;;11.57;;
10248;SDS011;5169;50.560;9.714;2022-12-20T05:40:49;18.70;;;13.33;;
10248;SDS011;5169;50.560;9.714;2022-12-20T05:43:16;17.10;;;12.60;;
10248;SDS011;5169;50.560;9.714;2022-12-20T05:45:46;20.13;;;13.23;;
10248;SDS011;5169;50.560;9.714;2022-12-20T05:48:14;21.70;;;13.83;;
10248;SDS011;5169;50.560;9.714;2022-12-20T05:50:40;21.03;;;13.87;;
10248;SDS011;5169;50.560;9.714;2022-12-20T05:53:13;19.43;;;13.97;;
10248;SDS011;5169;50.560;9.714;2022-12-20T05:55:43;19.87;;;13.90;;
10248;SDS011;5169;50.560;9.714;2022-12-20T05:58:14;22.13;;;14.70;;
10248;SDS011;5169;50.560;9.714;2022-12-20T06:00:40;22.00;;;14.47;;
10248;SDS011;5169;50.560;9.714;2022-12-20T06:03:06;21.20;;;14.53;;
10248;SDS011;5169;50.560;9.714;2022-12-20T06:05:34;17.67;;;12.03;;
10248;SDS011;5169;50.560;9.714;2022-12-20T06:08:01;20.40;;;12.97;;
10248;SDS011;5169;50.560;9.714;2022-12-20T06:10:28;21.07;;;13.27;;
10248;SDS011;5169;50.560;9.714;2022-12-20T06:12:53;19.70;;;13.07;;
10248;SDS011;5169;50.560;9.714;2022-12-20T06:15:21;21.53;;;13.70;;
10248;SDS011;5169;50.560;9.714;2022-12-20T06:17:47;18.17;;;12.50;;
10248;SDS011;5169;50.560;9.714;2022-12-20T06:20:15;18.63;;;13.33;;
10248;SDS011;5169;50.560;9.714;2022-12-20T06:22:40;19.17;;;14.57;;
10248;SDS011;5169;50.560;9.714;2022-12-20T06:25:06;22.80;;;14.57;;
10248;SDS011;5169;50.560;9.714;2022-12-20T06:27:33;21.77;;;14.67;;
10248;SDS011;5169;50.560;9.714;2022-12-20T06:30:00;23.43;;;14.27;;
10248;SDS011;5169;50.560;9.714;2022-12-20T06:32:31;20.70;;;14.03;;
10248;SDS011;5169;50.560;9.714;2022-12-20T06:35:01;21.50;;;14.93;;
10248;SDS011;5169;50.560;9.714;2022-12-20T06:37:27;21.17;;;14.63;;
10248;SDS011;5169;50.560;9.714;2022-12-20T06:39:53;21.13;;;15.30;;
10248;SDS011;5169;50.560;9.714;2022-12-20T06:42:18;23.57;;;16.10;;
10248;SDS011;5169;50.560;9.714;2022-12-20T06:44:44;19.23;;;13.33;;
10248;SDS011;5169;50.560;9.714;2022-12-20T06:47:10;19.70;;;14.03;;
10248;SDS011;5169;50.560;9.714;2022-12-20T06:49:35;21.07;;;14.77;;
10248;SDS011;5169;50.560;9.714;2022-12-20T06:52:01;20.40;;;14.70;;
10248;SDS011;5169;50.560;9.714;2022-12-20T06:54:29;20.67;;;14.13;;
10248;SDS011;5169;50.560;9.714;2022-12-20T06:56:55;19.80;;;14.33;;
10248;SDS011;5169;50.560;9.714;2022-12-20T06:59:25;20.30;;;14.10;;
10248;SDS011;5169;50.560;9.714;2022-12-20T07:01:53;18.87;;;13.50;;
10248;SDS011;5169;50.560;9.714;2022-12-20T07:04:19;17.70;;;10.87;;
10248;SDS011;5169;50.560;9.714;2022-12-20T07:06:45;20.73;;;13.13;;
10248;SDS011;5169;50.560;9.714;2022-12-20T07:09:10;17.33;;;12.97;;
10248;SDS011;5169;50.560;9.714;2022-12-20T07:11:36;17.33;;;11.80;;
10248;SDS011;5169;50.560;9.714;2022-12-20T07:14:07;17.50;;;11.17;;
10248;SDS011;5169;50.560;9.714;2022-12-20T07:16:35;17.23;;;10.73;;
10248;SDS011;5169;50.560;9.714;2022-12-20T07:19:01;18.30;;;12.53;;
10248;SDS011;5169;50.560;9.714;2022-12-20T07:21:29;19.03;;;10.97;;
10248;SDS011;5169;50.560;9.714;2022-12-20T07:23:55;16.40;;;12.07;;
10248;SDS011;5169;50.560;9.714;2022-12-20T07:26:20;16.37;;;12.20;;
10248;SDS011;5169;50.560;9.714;2022-12-20T07:28:48;17.30;;;12.43;;
10248;SDS011;5169;50.560;9.714;2022-12-20T07:31:15;16.17;;;11.10;;
10248;SDS011;5169;50.560;9.714;2022-12-20T07:33:40;17.17;;;12.27;;
10248;SDS011;5169;50.560;9.714;2022-12-20T07:36:07;15.83;;;10.17;;
10248;SDS011;5169;50.560;9.714;2022-12-20T07:38:35;22.30;;;12.67;;
10248;SDS011;5169;50.560;9.714;2022-12-20T07:41:11;17.60;;;12.33;;
10248;SDS011;5169;50.560;9.714;2022-12-20T07:43:41;17.20;;;10.77;;
10248;SDS011;5169;50.560;9.714;2022-12-20T07:46:07;20.60;;;12.47;;
10248;SDS011;5169;50.560;9.714;2022-12-20T07:48:35;20.23;;;12.20;;
10248;SDS011;5169;50.560;9.714;2022-12-20T07:51:05;17.23;;;11.47;;
10248;SDS011;5169;50.560;9.714;2022-12-20T07:53:41;18.90;;;11.57;;
10248;SDS011;5169;50.560;9.714;2022-12-20T07:56:12;18.80;;;12.80;;
10248;SDS011;5169;50.560;9.714;2022-12-20T07:58:39;16.73;;;10.70;;
10248;SDS011;5169;50.560;9.714;2022-12-20T08:01:07;22.13;;;13.70;;
10248;SDS011;5169;50.560;9.714;2022-12-20T08:03:44;22.60;;;12.73;;
10248;SDS011;5169;50.560;9.714;2022-12-20T08:06:13;21.60;;;13.60;;
10248;SDS011;5169;50.560;9.714;2022-12-20T08:08:42;16.97;;;13.27;;
10248;SDS011;5169;50.560;9.714;2022-12-20T08:11:15;19.53;;;14.47;;
10248;SDS011;5169;50.560;9.714;2022-12-20T08:13:42;19.93;;;13.73;;
10248;SDS011;5169;50.560;9.714;2022-12-20T08:16:08;20.97;;;15.00;;
10248;SDS011;5169;50.560;9.714;2022-12-20T08:18:36;24.00;;;14.80;;
10248;SDS011;5169;50.560;9.714;2022-12-20T08:21:02;21.23;;;14.17;;
10248;SDS011;5169;50.560;9.714;2022-12-20T08:23:28;19.00;;;13.67;;
10248;SDS011;5169;50.560;9.714;2022-12-20T08:25:54;20.83;;;15.13;;
10248;SDS011;5169;50.560;9.714;2022-12-20T08:28:19;20.10;;;14.03;;
10248;SDS011;5169;50.560;9.714;2022-12-20T08:30:48;19.90;;;13.53;;
10248;SDS011;5169;50.560;9.714;2022-12-20T08:33:13;17.60;;;12.47;;
10248;SDS011;5169;50.560;9.714;2022-12-20T08:35:41;17.87;;;12.60;;
10248;SDS011;5169;50.560;9.714;2022-12-20T08:38:07;19.37;;;13.33;;
10248;SDS011;5169;50.560;9.714;2022-12-20T08:40:32;19.53;;;12.23;;
10248;SDS011;5169;50.560;9.714;2022-12-20T08:42:58;17.90;;;13.37;;
10248;SDS011;5169;50.560;9.714;2022-12-20T08:45:24;18.77;;;12.57;;
10248;SDS011;5169;50.560;9.714;2022-12-20T08:47:49;20.60;;;13.33;;
10248;SDS011;5169;50.560;9.714;2022-12-20T08:50:15;19.80;;;12.70;;
10248;SDS011;5169;50.560;9.714;2022-12-20T08:52:41;20.03;;;12.83;;
10248;SDS011;5169;50.560;9.714;2022-12-20T08:55:11;18.77;;;13.23;;
10248;SDS011;5169;50.560;9.714;2022-12-20T08:57:37;20.00;;;13.53;;
10248;SDS011;5169;50.560;9.714;2022-12-20T09:00:02;20.10;;;12.20;;
10248;SDS011;5169;50.560;9.714;2022-12-20T09:02:31;16.93;;;12.30;;
10248;SDS011;5169;50.560;9.714;2022-12-20T09:04:59;17.33;;;12.50;;
10248;SDS011;5169;50.560;9.714;2022-12-20T09:07:27;18.50;;;12.77;;
10248;SDS011;5169;50.560;9.714;2022-12-20T09:09:55;18.73;;;12.60;;
10248;SDS011;5169;50.560;9.714;2022-12-20T09:12:23;16.20;;;12.03;;
10248;SDS011;5169;50.560;9.714;2022-12-20T09:14:49;16.43;;;12.17;;
10248;SDS011;5169;50.560;9.714;2022-12-20T09:17:17;15.97;;;11.87;;
10248;SDS011;5169;50.560;9.714;2022-12-20T09:19:42;19.87;;;12.17;;
10248;SDS011;5169;50.560;9.714;2022-12-20T09:22:08;17.53;;;12.30;;
10248;SDS011;5169;50.560;9.714;2022-12-20T09:24:36;16.80;;;11.90;;
10248;SDS011;5169;50.560;9.714;2022-12-20T09:27:02;19.93;;;13.13;;
10248;SDS011;5169;50.560;9.714;2022-12-20T09:29:27;18.63;;;13.03;;
10248;SDS011;5169;50.560;9.714;2022-12-20T09:31:55;19.17;;;11.77;;
10248;SDS011;5169;50.560;9.714;2022-12-20T09:34:21;15.43;;;11.43;;
10248;SDS011;5169;50.560;9.714;2022-12-20T09:36:49;14.63;;;10.70;;
10248;SDS011;5169;50.560;9.714;2022-12-20T09:39:19;14.57;;;10.07;;
10248;SDS011;5169;50.560;9.714;2022-12-20T09:41:47;15.70;;;11.07;;
10248;SDS011;5169;50.560;9.714;2022-12-20T09:44:23;14.07;;;10.43;;
10248;SDS011;5169;50.560;9.714;2022-12-20T09:46:54;18.97;;;12.73;;
10248;SDS011;5169;50.560;9.714;2022-12-20T09:49:26;16.63;;;11.50;;
10248;SDS011;5169;50.560;9.714;2022-12-20T09:59:39;18.20;;;11.93;;
10248;SDS011;5169;50.560;9.714;2022-12-20T10:02:11;17.00;;;10.33;;
10248;SDS011;5169;50.560;9.714;2022-12-20T10:04:39;16.70;;;10.97;;
10248;SDS011;5169;50.560;9.714;2022-12-20T10:22:52;16.53;;;12.43;;
10248;SDS011;5169;50.560;9.714;2022-12-20T10:25:30;17.37;;;11.73;;
10248;SDS011;5169;50.560;9.714;2022-12-20T10:27:59;16.57;;;11.70;;
10248;SDS011;5169;50.560;9.714;2022-12-20T10:30:33;17.63;;;12.27;;
10248;SDS011;5169;50.560;9.714;2022-12-20T10:32:59;14.83;;;10.47;;
10248;SDS011;5169;50.560;9.714;2022-12-20T10:35:38;14.80;;;10.50;;
10248;SDS011;5169;50.560;9.714;2022-12-20T10:40:39;17.03;;;10.90;;
10248;SDS011;5169;50.560;9.714;2022-12-20T10:43:33;14.33;;;10.53;;
10248;SDS011;5169;50.560;9.714;2022-12-20T10:46:01;14.00;;;10.30;;
10248;SDS011;5169;50.560;9.714;2022-12-20T10:48:36;17.77;;;11.00;;
10248;SDS011;5169;50.560;9.714;2022-12-20T10:53:36;17.00;;;11.00;;
10248;SDS011;5169;50.560;9.714;2022-12-20T10:58:54;16.93;;;10.00;;
10248;SDS011;5169;50.560;9.714;2022-12-20T11:01:28;14.73;;;9.93;;
10248;SDS011;5169;50.560;9.714;2022-12-20T11:04:20;18.87;;;12.27;;
10248;SDS011;5169;50.560;9.714;2022-12-20T11:07:01;20.07;;;12.83;;
10248;SDS011;5169;50.560;9.714;2022-12-20T11:09:32;16.97;;;11.47;;
10248;SDS011;5169;50.560;9.714;2022-12-20T11:12:00;19.43;;;10.37;;
10248;SDS011;5169;50.560;9.714;2022-12-20T11:14:26;15.40;;;9.67;;
10248;SDS011;5169;50.560;9.714;2022-12-20T11:16:56;15.93;;;9.17;;
10248;SDS011;5169;50.560;9.714;2022-12-20T11:22:20;13.63;;;8.33;;
10248;SDS011;5169;50.560;9.714;2022-12-20T11:31:11;11.67;;;8.77;;
10248;SDS011;5169;50.560;9.714;2022-12-20T11:33:51;13.53;;;9.10;;
10248;SDS011;5169;50.560;9.714;2022-12-20T11:50:57;17.87;;;10.80;;
10248;SDS011;5169;50.560;9.714;2022-12-20T11:59:06;14.50;;;9.57;;
10248;SDS011;5169;50.560;9.714;2022-12-20T12:01:39;13.77;;;8.73;;
10248;SDS011;5169;50.560;9.714;2022-12-20T12:04:29;14.73;;;9.63;;
10248;SDS011;5169;50.560;9.714;2022-12-20T12:07:02;13.77;;;8.70;;
10248;SDS011;5169;50.560;9.714;2022-12-20T12:15:21;16.10;;;10.17;;
10248;SDS011;5169;50.560;9.714;2022-12-20T12:26:31;11.83;;;8.57;;
10248;SDS011;5169;50.560;9.714;2022-12-20T12:31:43;15.33;;;9.70;;
10248;SDS011;5169;50.560;9.714;2022-12-20T12:45:00;16.30;;;9.30;;
10248;SDS011;5169;50.560;9.714;2022-12-20T12:50:14;13.43;;;8.23;;
10248;SDS011;5169;50.560;9.714;2022-12-20T12:52:54;13.83;;;9.40;;
10248;SDS011;5169;50.560;9.714;2022-12-20T12:55:39;14.27;;;9.23;;
10248;SDS011;5169;50.560;9.714;2022-12-20T13:03:15;15.23;;;9.80;;
10248;SDS011;5169;50.560;9.714;2022-12-20T13:06:03;15.30;;;9.63;;
10248;SDS011;5169;50.560;9.714;2022-12-20T13:11:33;15.00;;;9.70;;
10248;SDS011;5169;50.560;9.714;2022-12-20T13:19:30;12.87;;;8.77;;
10248;SDS011;5169;50.560;9.714;2022-12-20T13:24:37;19.70;;;10.63;;
10248;SDS011;5169;50.560;9.714;2022-12-20T13:27:23;17.07;;;10.20;;
10248;SDS011;5169;50.560;9.714;2022-12-20T13:33:15;28.00;;;15.83;;
10248;SDS011;5169;50.560;9.714;2022-12-20T13:40:57;43.23;;;22.37;;
10248;SDS011;5169;50.560;9.714;2022-12-20T13:43:40;29.13;;;17.17;;
10248;SDS011;5169;50.560;9.714;2022-12-20T13:51:11;13.90;;;8.30;;
10248;SDS011;5169;50.560;9.714;2022-12-20T13:58:53;13.63;;;8.57;;
10248;SDS011;5169;50.560;9.714;2022-12-20T14:01:27;15.57;;;9.07;;
10248;SDS011;5169;50.560;9.714;2022-12-20T14:03:53;13.63;;;9.60;;
10248;SDS011;5169;50.560;9.714;2022-12-20T14:06:19;15.43;;;9.17;;
10248;SDS011;5169;50.560;9.714;2022-12-20T14:08:48;14.70;;;8.87;;
10248;SDS011;5169;50.560;9.714;2022-12-20T14:11:16;13.67;;;8.70;;
10248;SDS011;5169;50.560;9.714;2022-12-20T14:13:56;13.30;;;8.40;;
10248;SDS011;5169;50.560;9.714;2022-12-20T14:16:26;14.47;;;8.67;;
10248;SDS011;5169;50.560;9.714;2022-12-20T14:21:24;13.33;;;8.70;;
10248;SDS011;5169;50.560;9.714;2022-12-20T14:23:56;15.00;;;9.20;;
10248;SDS011;5169;50.560;9.714;2022-12-20T14:26:26;14.43;;;9.30;;
10248;SDS011;5169;50.560;9.714;2022-12-20T14:28:54;14.83;;;9.20;;
10248;SDS011;5169;50.560;9.714;2022-12-20T14:34:04;15.20;;;9.70;;
10248;SDS011;5169;50.560;9.714;2022-12-20T14:36:31;16.80;;;8.87;;
10248;SDS011;5169;50.560;9.714;2022-12-20T14:38:58;13.40;;;8.87;;
10248;SDS011;5169;50.560;9.714;2022-12-20T14:41:34;14.37;;;9.30;;
10248;SDS011;5169;50.560;9.714;2022-12-20T14:44:12;11.93;;;8.50;;
10248;SDS011;5169;50.560;9.714;2022-12-20T14:47:26;13.23;;;8.53;;
10248;SDS011;5169;50.560;9.714;2022-12-20T14:49:43;12.87;;;9.23;;
10248;SDS011;5169;50.560;9.714;2022-12-20T14:52:35;15.53;;;10.37;;
10248;SDS011;5169;50.560;9.714;2022-12-20T14:57:41;12.40;;;9.00;;
10248;SDS011;5169;50.560;9.714;2022-12-20T15:10:40;12.97;;;8.50;;
10248;SDS011;5169;50.560;9.714;2022-12-20T15:13:10;15.10;;;9.00;;
10248;SDS011;5169;50.560;9.714;2022-12-20T15:15:37;16.53;;;11.17;;
10248;SDS011;5169;50.560;9.714;2022-12-20T15:18:13;59.70;;;29.57;;
10248;SDS011;5169;50.560;9.714;2022-12-20T15:20:46;63.17;;;28.80;;
10248;SDS011;5169;50.560;9.714;2022-12-20T15:23:19;87.17;;;36.53;;
10248;SDS011;5169;50.560;9.714;2022-12-20T15:25:48;55.77;;;24.47;;
10248;SDS011;5169;50.560;9.714;2022-12-20T15:28:17;48.57;;;19.93;;
10248;SDS011;5169;50.560;9.714;2022-12-20T15:30:49;21.33;;;10.83;;
10248;SDS011;5169;50.560;9.714;2022-12-20T15:33:20;35.33;;;16.67;;
10248;SDS011;5169;50.560;9.714;2022-12-20T15:35:49;28.87;;;14.93;;
10248;SDS011;5169;50.560;9.714;2022-12-20T15:38:21;70.03;;;31.70;;
10248;SDS011;5169;50.560;9.714;2022-12-20T15:40:51;39.27;;;21.67;;
10248;SDS011;5169;50.560;9.714;2022-12-20T15:43:21;28.37;;;18.43;;
10248;SDS011;5169;50.560;9.714;2022-12-20T15:45:51;17.47;;;11.80;;
10248;SDS011;5169;50.560;9.714;2022-12-20T15:48:21;14.47;;;9.70;;
10248;SDS011;5169;50.560;9.714;2022-12-20T15:50:54;13.97;;;8.90;;
10248;SDS011;5169;50.560;9.714;2022-12-20T15:53:24;13.10;;;8.50;;
10248;SDS011;5169;50.560;9.714;2022-12-20T15:55:52;13.83;;;9.63;;
10248;SDS011;5169;50.560;9.714;2022-12-20T15:58:20;13.27;;;9.03;;
10248;SDS011;5169;50.560;9.714;2022-12-20T16:00:47;15.97;;;9.27;;
10248;SDS011;5169;50.560;9.714;2022-12-20T16:03:17;13.80;;;8.43;;
10248;SDS011;5169;50.560;9.714;2022-12-20T16:05:47;14.70;;;9.23;;
10248;SDS011;5169;50.560;9.714;2022-12-20T16:08:15;15.10;;;9.30;;
10248;SDS011;5169;50.560;9.714;2022-12-20T16:10:42;14.80;;;10.07;;
10248;SDS011;5169;50.560;9.714;2022-12-20T16:13:15;14.10;;;9.73;;
10248;SDS011;5169;50.560;9.714;2022-12-20T16:15:47;12.57;;;8.63;;
10248;SDS011;5169;50.560;9.714;2022-12-20T16:18:16;16.30;;;9.27;;
10248;SDS011;5169;50.560;9.714;2022-12-20T16:20:42;14.30;;;9.47;;
10248;SDS011;5169;50.560;9.714;2022-12-20T16:23:15;13.10;;;9.07;;
10248;SDS011;5169;50.560;9.714;2022-12-20T16:25:42;17.47;;;9.10;;
10248;SDS011;5169;50.560;9.714;2022-12-20T16:28:08;14.77;;;9.47;;
10248;SDS011;5169;50.560;9.714;2022-12-20T16:30:39;13.60;;;9.50;;
10248;SDS011;5169;50.560;9.714;2022-12-20T16:33:05;14.87;;;9.00;;
10248;SDS011;5169;50.560;9.714;2022-12-20T16:35:33;13.00;;;8.60;;
10248;SDS011;5169;50.560;9.714;2022-12-20T16:38:01;11.77;;;7.90;;
10248;SDS011;5169;50.560;9.714;2022-12-20T16:40:31;11.97;;;7.97;;
10248;SDS011;5169;50.560;9.714;2022-12-20T16:42:57;12.73;;;7.97;;
10248;SDS011;5169;50.560;9.714;2022-12-20T16:45:25;14.47;;;9.00;;
10248;SDS011;5169;50.560;9.714;2022-12-20T16:47:58;14.33;;;8.63;;
10248;SDS011;5169;50.560;9.714;2022-12-20T16:50:24;14.13;;;9.13;;
10248;SDS011;5169;50.560;9.714;2022-12-20T16:52:51;14.23;;;8.57;;
10248;SDS011;5169;50.560;9.714;2022-12-20T16:55:21;13.97;;;8.67;;
10248;SDS011;5169;50.560;9.714;2022-12-20T16:57:51;13.50;;;9.07;;
10248;SDS011;5169;50.560;9.714;2022-12-20T17:00:19;16.00;;;9.67;;
10248;SDS011;5169;50.560;9.714;2022-12-20T17:02:49;14.23;;;9.57;;
10248;SDS011;5169;50.560;9.714;2022-12-20T17:05:22;15.77;;;8.93;;
10248;SDS011;5169;50.560;9.714;2022-12-20T17:07:50;13.27;;;8.90;;
10248;SDS011;5169;50.560;9.714;2022-12-20T17:10:16;14.57;;;9.30;;
10248;SDS011;5169;50.560;9.714;2022-12-20T17:12:44;12.00;;;8.60;;
10248;SDS011;5169;50.560;9.714;2022-12-20T17:15:13;12.20;;;8.30;;
10248;SDS011;5169;50.560;9.714;2022-12-20T17:17:44;13.93;;;9.47;;
10248;SDS011;5169;50.560;9.714;2022-12-20T17:20:10;15.30;;;9.37;;
10248;SDS011;5169;50.560;9.714;2022-12-20T17:22:37;14.63;;;9.90;;
10248;SDS011;5169;50.560;9.714;2022-12-20T17:25:03;17.53;;;9.93;;
10248;SDS011;5169;50.560;9.714;2022-12-20T17:27:29;16.93;;;10.77;;
10248;SDS011;5169;50.560;9.714;2022-12-20T17:29:54;17.63;;;10.13;;
10248;SDS011;5169;50.560;9.714;2022-12-20T17:32:21;15.73;;;10.37;;